sensor_id;sensor_type;location;lat;lon;timestamp;P1;durP1;ratioP1;P2;durP2;ratioP2
12218;SDS011;6172;42.646;23.344;2023-03-12T00:00:05;5.40;;;1.20;;
12218;SDS011;6172;42.646;23.344;2023-03-12T00:02:35;2.10;;;0.90;;
12218;SDS011;6172;42.646;23.344;2023-03-12T00:05:02;3.33;;;1.40;;
12218;SDS011;6172;42.646;23.344;2023-03-12T00:07:29;5.60;;;1.57;;
12218;SDS011;6172;42.646;23.344;2023-03-12T00:09:58;2.40;;;1.60;;
12218;SDS011;6172;42.646;23.344;2023-03-12T00:12:25;3.63;;;1.93;;
12218;SDS011;6172;42.646;23.344;2023-03-12T00:14:52;4.13;;;1.70;;
12218;SDS011;6172;42.646;23.344;2023-03-12T00:17:19;4.37;;;2.13;;
12218;SDS011;6172;42.646;23.344;2023-03-12T00:19:45;3.60;;;2.30;;
12218;SDS011;6172;42.646;23.344;2023-03-12T00:22:16;6.57;;;2.60;;
12218;SDS011;6172;42.646;23.344;2023-03-12T00:24:48;2.40;;;2.20;;
12218;SDS011;6172;42.646;23.344;2023-03-12T00:27:18;3.27;;;2.60;;
12218;SDS011;6172;42.646;23.344;2023-03-12T00:29:45;2.93;;;2.33;;
12218;SDS011;6172;42.646;23.344;2023-03-12T00:32:12;2.70;;;2.50;;
12218;SDS011;6172;42.646;23.344;2023-03-12T00:34:41;4.93;;;2.50;;
12218;SDS011;6172;42.646;23.344;2023-03-12T00:37:09;2.70;;;2.33;;
12218;SDS011;6172;42.646;23.344;2023-03-12T00:39:36;2.37;;;2.17;;
12218;SDS011;6172;42.646;23.344;2023-03-12T00:42:03;4.73;;;2.73;;
12218;SDS011;6172;42.646;23.344;2023-03-12T00:44:31;5.40;;;2.80;;
12218;SDS011;6172;42.646;23.344;2023-03-12T00:46:58;4.43;;;2.63;;
12218;SDS011;6172;42.646;23.344;2023-03-12T00:49:25;3.83;;;2.17;;
12218;SDS011;6172;42.646;23.344;2023-03-12T00:51:52;3.00;;;2.70;;
12218;SDS011;6172;42.646;23.344;2023-03-12T00:54:20;5.63;;;2.47;;
12218;SDS011;6172;42.646;23.344;2023-03-12T00:56:47;3.40;;;2.30;;
12218;SDS011;6172;42.646;23.344;2023-03-12T00:59:15;4.37;;;2.23;;
12218;SDS011;6172;42.646;23.344;2023-03-12T01:01:43;4.33;;;2.50;;
12218;SDS011;6172;42.646;23.344;2023-03-12T01:04:11;3.43;;;2.43;;
12218;SDS011;6172;42.646;23.344;2023-03-12T01:06:39;3.37;;;2.37;;
12218;SDS011;6172;42.646;23.344;2023-03-12T01:09:07;5.83;;;2.47;;
12218;SDS011;6172;42.646;23.344;2023-03-12T01:11:34;3.23;;;2.50;;
12218;SDS011;6172;42.646;23.344;2023-03-12T01:14:03;3.17;;;2.23;;
12218;SDS011;6172;42.646;23.344;2023-03-12T01:16:31;2.53;;;2.17;;
12218;SDS011;6172;42.646;23.344;2023-03-12T01:19:00;3.93;;;2.13;;
12218;SDS011;6172;42.646;23.344;2023-03-12T01:21:28;4.17;;;2.53;;
12218;SDS011;6172;42.646;23.344;2023-03-12T01:23:56;3.27;;;2.30;;
12218;SDS011;6172;42.646;23.344;2023-03-12T01:26:23;2.90;;;2.57;;
12218;SDS011;6172;42.646;23.344;2023-03-12T01:28:50;3.27;;;2.40;;
12218;SDS011;6172;42.646;23.344;2023-03-12T01:31:18;2.87;;;2.40;;
12218;SDS011;6172;42.646;23.344;2023-03-12T01:33:47;3.00;;;2.23;;
12218;SDS011;6172;42.646;23.344;2023-03-12T01:36:17;3.67;;;2.53;;
12218;SDS011;6172;42.646;23.344;2023-03-12T01:38:45;2.80;;;2.50;;
12218;SDS011;6172;42.646;23.344;2023-03-12T01:41:12;3.37;;;2.57;;
12218;SDS011;6172;42.646;23.344;2023-03-12T01:43:42;2.70;;;2.20;;
12218;SDS011;6172;42.646;23.344;2023-03-12T01:46:19;2.50;;;2.30;;
12218;SDS011;6172;42.646;23.344;2023-03-12T01:48:54;2.53;;;2.33;;
12218;SDS011;6172;42.646;23.344;2023-03-12T01:51:28;3.57;;;2.53;;
12218;SDS011;6172;42.646;23.344;2023-03-12T01:53:59;4.13;;;2.53;;
12218;SDS011;6172;42.646;23.344;2023-03-12T01:56:31;2.90;;;2.60;;
12218;SDS011;6172;42.646;23.344;2023-03-12T01:59:01;6.03;;;2.80;;
12218;SDS011;6172;42.646;23.344;2023-03-12T02:01:32;3.00;;;2.70;;
12218;SDS011;6172;42.646;23.344;2023-03-12T02:03:59;5.43;;;2.23;;
12218;SDS011;6172;42.646;23.344;2023-03-12T02:06:31;2.27;;;1.97;;
12218;SDS011;6172;42.646;23.344;2023-03-12T02:09:02;3.00;;;2.47;;
12218;SDS011;6172;42.646;23.344;2023-03-12T02:11:32;7.37;;;2.57;;
12218;SDS011;6172;42.646;23.344;2023-03-12T02:13:59;3.70;;;2.03;;
12218;SDS011;6172;42.646;23.344;2023-03-12T02:16:26;2.67;;;2.07;;
12218;SDS011;6172;42.646;23.344;2023-03-12T02:18:54;2.10;;;2.00;;
12218;SDS011;6172;42.646;23.344;2023-03-12T02:21:26;3.00;;;1.93;;
12218;SDS011;6172;42.646;23.344;2023-03-12T02:24:02;2.50;;;2.10;;
12218;SDS011;6172;42.646;23.344;2023-03-12T02:26:39;2.30;;;2.10;;
12218;SDS011;6172;42.646;23.344;2023-03-12T02:29:07;3.30;;;1.93;;
12218;SDS011;6172;42.646;23.344;2023-03-12T02:31:36;1.80;;;1.57;;
12218;SDS011;6172;42.646;23.344;2023-03-12T02:34:06;2.23;;;1.77;;
12218;SDS011;6172;42.646;23.344;2023-03-12T02:36:34;2.47;;;1.97;;
12218;SDS011;6172;42.646;23.344;2023-03-12T02:39:00;2.00;;;1.50;;
12218;SDS011;6172;42.646;23.344;2023-03-12T02:41:28;3.63;;;1.67;;
12218;SDS011;6172;42.646;23.344;2023-03-12T02:43:59;2.40;;;1.70;;
12218;SDS011;6172;42.646;23.344;2023-03-12T02:46:31;1.70;;;1.60;;
12218;SDS011;6172;42.646;23.344;2023-03-12T02:49:01;3.43;;;1.57;;
12218;SDS011;6172;42.646;23.344;2023-03-12T02:51:28;4.00;;;2.03;;
12218;SDS011;6172;42.646;23.344;2023-03-12T02:53:55;1.60;;;1.50;;
12218;SDS011;6172;42.646;23.344;2023-03-12T02:56:23;1.93;;;1.73;;
12218;SDS011;6172;42.646;23.344;2023-03-12T02:58:51;2.87;;;2.10;;
12218;SDS011;6172;42.646;23.344;2023-03-12T03:01:21;2.20;;;1.67;;
12218;SDS011;6172;42.646;23.344;2023-03-12T03:03:47;1.93;;;1.80;;
12218;SDS011;6172;42.646;23.344;2023-03-12T03:06:15;2.43;;;1.90;;
12218;SDS011;6172;42.646;23.344;2023-03-12T03:08:42;3.23;;;1.77;;
12218;SDS011;6172;42.646;23.344;2023-03-12T03:11:09;2.23;;;1.70;;
12218;SDS011;6172;42.646;23.344;2023-03-12T03:13:36;3.47;;;1.33;;
12218;SDS011;6172;42.646;23.344;2023-03-12T03:16:04;1.90;;;1.27;;
12218;SDS011;6172;42.646;23.344;2023-03-12T03:18:33;1.90;;;1.20;;
12218;SDS011;6172;42.646;23.344;2023-03-12T03:21:01;1.13;;;1.03;;
12218;SDS011;6172;42.646;23.344;2023-03-12T03:23:30;1.60;;;1.17;;
12218;SDS011;6172;42.646;23.344;2023-03-12T03:25:57;1.10;;;1.00;;
12218;SDS011;6172;42.646;23.344;2023-03-12T03:28:25;0.70;;;0.70;;
12218;SDS011;6172;42.646;23.344;2023-03-12T03:30:54;0.73;;;0.70;;
12218;SDS011;6172;42.646;23.344;2023-03-12T03:33:25;0.83;;;0.83;;
12218;SDS011;6172;42.646;23.344;2023-03-12T03:35:54;0.80;;;0.80;;
12218;SDS011;6172;42.646;23.344;2023-03-12T03:38:23;1.03;;;0.90;;
12218;SDS011;6172;42.646;23.344;2023-03-12T03:40:51;0.80;;;0.60;;
12218;SDS011;6172;42.646;23.344;2023-03-12T03:43:18;1.10;;;0.73;;
12218;SDS011;6172;42.646;23.344;2023-03-12T03:45:46;1.77;;;0.70;;
12218;SDS011;6172;42.646;23.344;2023-03-12T03:48:13;2.37;;;0.80;;
12218;SDS011;6172;42.646;23.344;2023-03-12T03:50:43;3.23;;;0.97;;
12218;SDS011;6172;42.646;23.344;2023-03-12T03:53:12;1.43;;;1.10;;
12218;SDS011;6172;42.646;23.344;2023-03-12T03:55:43;1.37;;;0.80;;
12218;SDS011;6172;42.646;23.344;2023-03-12T03:58:12;0.90;;;0.87;;
12218;SDS011;6172;42.646;23.344;2023-03-12T04:00:39;0.97;;;0.70;;
12218;SDS011;6172;42.646;23.344;2023-03-12T04:03:09;0.77;;;0.50;;
12218;SDS011;6172;42.646;23.344;2023-03-12T04:05:37;0.80;;;0.70;;
12218;SDS011;6172;42.646;23.344;2023-03-12T04:08:04;0.83;;;0.70;;
12218;SDS011;6172;42.646;23.344;2023-03-12T04:10:33;1.80;;;0.60;;
12218;SDS011;6172;42.646;23.344;2023-03-12T04:13:03;0.50;;;0.50;;
12218;SDS011;6172;42.646;23.344;2023-03-12T04:15:30;1.20;;;0.60;;
12218;SDS011;6172;42.646;23.344;2023-03-12T04:18:01;0.73;;;0.60;;
12218;SDS011;6172;42.646;23.344;2023-03-12T04:20:28;0.60;;;0.60;;
12218;SDS011;6172;42.646;23.344;2023-03-12T04:22:55;0.97;;;0.70;;
12218;SDS011;6172;42.646;23.344;2023-03-12T04:25:25;3.00;;;0.87;;
12218;SDS011;6172;42.646;23.344;2023-03-12T04:27:54;1.57;;;0.50;;
12218;SDS011;6172;42.646;23.344;2023-03-12T04:30:21;0.80;;;0.53;;
12218;SDS011;6172;42.646;23.344;2023-03-12T04:32:48;0.80;;;0.70;;
12218;SDS011;6172;42.646;23.344;2023-03-12T04:35:15;1.50;;;0.57;;
12218;SDS011;6172;42.646;23.344;2023-03-12T04:37:52;2.37;;;0.50;;
12218;SDS011;6172;42.646;23.344;2023-03-12T04:40:20;1.50;;;0.50;;
12218;SDS011;6172;42.646;23.344;2023-03-12T04:42:48;1.00;;;0.57;;
12218;SDS011;6172;42.646;23.344;2023-03-12T04:45:18;4.13;;;0.70;;
12218;SDS011;6172;42.646;23.344;2023-03-12T04:47:47;1.43;;;0.50;;
12218;SDS011;6172;42.646;23.344;2023-03-12T04:50:17;1.03;;;0.53;;
12218;SDS011;6172;42.646;23.344;2023-03-12T04:52:45;1.93;;;0.60;;
12218;SDS011;6172;42.646;23.344;2023-03-12T04:55:12;1.57;;;0.80;;
12218;SDS011;6172;42.646;23.344;2023-03-12T04:57:39;0.67;;;0.50;;
12218;SDS011;6172;42.646;23.344;2023-03-12T05:00:07;0.63;;;0.30;;
12218;SDS011;6172;42.646;23.344;2023-03-12T05:02:39;0.90;;;0.40;;
12218;SDS011;6172;42.646;23.344;2023-03-12T05:05:09;0.30;;;0.30;;
12218;SDS011;6172;42.646;23.344;2023-03-12T05:07:37;0.70;;;0.50;;
12218;SDS011;6172;42.646;23.344;2023-03-12T05:10:08;2.47;;;0.40;;
12218;SDS011;6172;42.646;23.344;2023-03-12T05:12:36;0.27;;;0.27;;
12218;SDS011;6172;42.646;23.344;2023-03-12T05:15:03;1.13;;;0.30;;
12218;SDS011;6172;42.646;23.344;2023-03-12T05:17:32;1.80;;;0.40;;
12218;SDS011;6172;42.646;23.344;2023-03-12T05:20:00;0.80;;;0.40;;
12218;SDS011;6172;42.646;23.344;2023-03-12T05:22:28;0.43;;;0.40;;
12218;SDS011;6172;42.646;23.344;2023-03-12T05:24:55;1.70;;;0.40;;
12218;SDS011;6172;42.646;23.344;2023-03-12T05:27:23;0.57;;;0.30;;
12218;SDS011;6172;42.646;23.344;2023-03-12T05:29:51;1.40;;;0.40;;
12218;SDS011;6172;42.646;23.344;2023-03-12T05:32:18;2.00;;;0.30;;
12218;SDS011;6172;42.646;23.344;2023-03-12T05:34:45;1.63;;;0.50;;
12218;SDS011;6172;42.646;23.344;2023-03-12T05:37:16;1.23;;;0.30;;
12218;SDS011;6172;42.646;23.344;2023-03-12T05:39:43;0.77;;;0.50;;
12218;SDS011;6172;42.646;23.344;2023-03-12T05:42:11;1.40;;;0.50;;
12218;SDS011;6172;42.646;23.344;2023-03-12T05:44:41;1.60;;;0.40;;
12218;SDS011;6172;42.646;23.344;2023-03-12T05:47:08;2.40;;;0.43;;
12218;SDS011;6172;42.646;23.344;2023-03-12T05:49:35;0.50;;;0.40;;
12218;SDS011;6172;42.646;23.344;2023-03-12T05:52:02;2.10;;;0.60;;
12218;SDS011;6172;42.646;23.344;2023-03-12T05:54:31;0.60;;;0.40;;
12218;SDS011;6172;42.646;23.344;2023-03-12T05:56:58;1.07;;;0.47;;
12218;SDS011;6172;42.646;23.344;2023-03-12T05:59:27;1.27;;;0.60;;
12218;SDS011;6172;42.646;23.344;2023-03-12T06:01:54;2.10;;;0.47;;
12218;SDS011;6172;42.646;23.344;2023-03-12T06:04:21;0.63;;;0.47;;
12218;SDS011;6172;42.646;23.344;2023-03-12T06:06:48;0.40;;;0.40;;
12218;SDS011;6172;42.646;23.344;2023-03-12T06:09:15;0.87;;;0.60;;
12218;SDS011;6172;42.646;23.344;2023-03-12T06:11:44;2.10;;;0.50;;
12218;SDS011;6172;42.646;23.344;2023-03-12T06:14:11;1.27;;;0.50;;
12218;SDS011;6172;42.646;23.344;2023-03-12T06:16:38;0.90;;;0.50;;
12218;SDS011;6172;42.646;23.344;2023-03-12T06:19:05;1.60;;;0.47;;
12218;SDS011;6172;42.646;23.344;2023-03-12T06:21:38;1.00;;;0.80;;
12218;SDS011;6172;42.646;23.344;2023-03-12T06:24:05;3.60;;;0.60;;
12218;SDS011;6172;42.646;23.344;2023-03-12T06:26:33;1.67;;;0.87;;
12218;SDS011;6172;42.646;23.344;2023-03-12T06:29:02;2.00;;;0.60;;
12218;SDS011;6172;42.646;23.344;2023-03-12T06:31:29;1.30;;;0.90;;
12218;SDS011;6172;42.646;23.344;2023-03-12T06:33:56;3.37;;;1.10;;
12218;SDS011;6172;42.646;23.344;2023-03-12T06:36:23;1.17;;;0.93;;
12218;SDS011;6172;42.646;23.344;2023-03-12T06:38:50;1.43;;;1.20;;
12218;SDS011;6172;42.646;23.344;2023-03-12T06:41:18;4.20;;;0.90;;
12218;SDS011;6172;42.646;23.344;2023-03-12T06:43:46;2.30;;;1.03;;
12218;SDS011;6172;42.646;23.344;2023-03-12T06:46:15;0.80;;;0.80;;
12218;SDS011;6172;42.646;23.344;2023-03-12T06:48:46;1.07;;;0.73;;
12218;SDS011;6172;42.646;23.344;2023-03-12T06:51:13;1.43;;;1.10;;
12218;SDS011;6172;42.646;23.344;2023-03-12T06:53:42;1.37;;;1.00;;
12218;SDS011;6172;42.646;23.344;2023-03-12T06:56:10;1.33;;;1.20;;
12218;SDS011;6172;42.646;23.344;2023-03-12T06:58:38;1.70;;;1.00;;
12218;SDS011;6172;42.646;23.344;2023-03-12T07:01:06;1.90;;;1.10;;
12218;SDS011;6172;42.646;23.344;2023-03-12T07:03:34;4.73;;;0.97;;
12218;SDS011;6172;42.646;23.344;2023-03-12T07:06:05;2.00;;;1.00;;
12218;SDS011;6172;42.646;23.344;2023-03-12T07:11:25;0.83;;;0.83;;
12218;SDS011;6172;42.646;23.344;2023-03-12T07:13:52;3.17;;;0.77;;
12218;SDS011;6172;42.646;23.344;2023-03-12T07:16:21;1.83;;;0.80;;
12218;SDS011;6172;42.646;23.344;2023-03-12T07:18:49;2.37;;;0.90;;
12218;SDS011;6172;42.646;23.344;2023-03-12T07:21:19;2.63;;;1.53;;
12218;SDS011;6172;42.646;23.344;2023-03-12T07:23:47;0.90;;;0.70;;
12218;SDS011;6172;42.646;23.344;2023-03-12T07:26:15;1.13;;;0.97;;
12218;SDS011;6172;42.646;23.344;2023-03-12T07:28:42;1.13;;;0.80;;
12218;SDS011;6172;42.646;23.344;2023-03-12T07:31:09;2.10;;;0.70;;
12218;SDS011;6172;42.646;23.344;2023-03-12T07:33:36;0.60;;;0.60;;
12218;SDS011;6172;42.646;23.344;2023-03-12T07:36:06;1.47;;;0.90;;
12218;SDS011;6172;42.646;23.344;2023-03-12T07:38:33;2.00;;;0.67;;
12218;SDS011;6172;42.646;23.344;2023-03-12T07:41:00;0.97;;;0.87;;
12218;SDS011;6172;42.646;23.344;2023-03-12T07:43:26;1.27;;;0.67;;
12218;SDS011;6172;42.646;23.344;2023-03-12T07:45:53;2.27;;;0.80;;
12218;SDS011;6172;42.646;23.344;2023-03-12T07:48:20;1.20;;;1.10;;
12218;SDS011;6172;42.646;23.344;2023-03-12T07:50:47;1.87;;;1.00;;
12218;SDS011;6172;42.646;23.344;2023-03-12T07:53:16;1.03;;;0.73;;
12218;SDS011;6172;42.646;23.344;2023-03-12T07:55:43;1.73;;;0.60;;
12218;SDS011;6172;42.646;23.344;2023-03-12T07:58:12;2.67;;;0.90;;
12218;SDS011;6172;42.646;23.344;2023-03-12T08:00:39;1.63;;;0.77;;
12218;SDS011;6172;42.646;23.344;2023-03-12T08:03:06;0.77;;;0.57;;
12218;SDS011;6172;42.646;23.344;2023-03-12T08:05:33;0.50;;;0.47;;
12218;SDS011;6172;42.646;23.344;2023-03-12T08:08:01;1.63;;;0.70;;
12218;SDS011;6172;42.646;23.344;2023-03-12T08:10:29;1.07;;;0.67;;
12218;SDS011;6172;42.646;23.344;2023-03-12T08:12:56;1.57;;;0.60;;
12218;SDS011;6172;42.646;23.344;2023-03-12T08:15:23;0.80;;;0.77;;
12218;SDS011;6172;42.646;23.344;2023-03-12T08:17:50;0.93;;;0.70;;
12218;SDS011;6172;42.646;23.344;2023-03-12T08:20:16;0.63;;;0.40;;
12218;SDS011;6172;42.646;23.344;2023-03-12T08:22:45;0.50;;;0.50;;
12218;SDS011;6172;42.646;23.344;2023-03-12T08:25:12;1.00;;;0.63;;
12218;SDS011;6172;42.646;23.344;2023-03-12T08:27:44;0.70;;;0.70;;
12218;SDS011;6172;42.646;23.344;2023-03-12T08:30:11;1.00;;;0.53;;
12218;SDS011;6172;42.646;23.344;2023-03-12T08:32:38;1.17;;;0.90;;
12218;SDS011;6172;42.646;23.344;2023-03-12T08:35:06;2.03;;;0.87;;
12218;SDS011;6172;42.646;23.344;2023-03-12T08:37:34;1.43;;;0.80;;
12218;SDS011;6172;42.646;23.344;2023-03-12T08:40:02;0.83;;;0.67;;
12218;SDS011;6172;42.646;23.344;2023-03-12T08:42:37;1.27;;;0.70;;
12218;SDS011;6172;42.646;23.344;2023-03-12T08:45:07;1.23;;;1.00;;
12218;SDS011;6172;42.646;23.344;2023-03-12T08:47:37;1.90;;;0.90;;
12218;SDS011;6172;42.646;23.344;2023-03-12T08:50:06;0.93;;;0.83;;
12218;SDS011;6172;42.646;23.344;2023-03-12T08:52:53;0.87;;;0.80;;
12218;SDS011;6172;42.646;23.344;2023-03-12T08:55:20;0.83;;;0.70;;
12218;SDS011;6172;42.646;23.344;2023-03-12T08:57:48;0.60;;;0.60;;
12218;SDS011;6172;42.646;23.344;2023-03-12T09:00:17;0.50;;;0.40;;
12218;SDS011;6172;42.646;23.344;2023-03-12T09:02:44;1.10;;;0.77;;
12218;SDS011;6172;42.646;23.344;2023-03-12T09:05:11;0.83;;;0.60;;
12218;SDS011;6172;42.646;23.344;2023-03-12T09:07:39;0.90;;;0.60;;
12218;SDS011;6172;42.646;23.344;2023-03-12T09:10:06;1.03;;;0.83;;
12218;SDS011;6172;42.646;23.344;2023-03-12T09:12:34;0.97;;;0.80;;
12218;SDS011;6172;42.646;23.344;2023-03-12T09:15:01;0.70;;;0.70;;
12218;SDS011;6172;42.646;23.344;2023-03-12T09:17:29;1.00;;;0.73;;
12218;SDS011;6172;42.646;23.344;2023-03-12T09:19:57;1.03;;;0.70;;
12218;SDS011;6172;42.646;23.344;2023-03-12T09:22:25;3.00;;;0.70;;
12218;SDS011;6172;42.646;23.344;2023-03-12T09:24:54;0.90;;;0.80;;
12218;SDS011;6172;42.646;23.344;2023-03-12T09:27:21;2.43;;;1.10;;
12218;SDS011;6172;42.646;23.344;2023-03-12T09:29:48;2.23;;;0.90;;
12218;SDS011;6172;42.646;23.344;2023-03-12T09:32:16;1.53;;;0.90;;
12218;SDS011;6172;42.646;23.344;2023-03-12T09:34:44;1.53;;;0.80;;
12218;SDS011;6172;42.646;23.344;2023-03-12T09:37:11;1.57;;;1.00;;
12218;SDS011;6172;42.646;23.344;2023-03-12T09:39:38;1.40;;;1.20;;
12218;SDS011;6172;42.646;23.344;2023-03-12T09:42:05;2.27;;;0.80;;
12218;SDS011;6172;42.646;23.344;2023-03-12T09:44:45;1.00;;;0.90;;
12218;SDS011;6172;42.646;23.344;2023-03-12T09:47:15;1.10;;;1.00;;
12218;SDS011;6172;42.646;23.344;2023-03-12T09:49:52;2.40;;;0.80;;
12218;SDS011;6172;42.646;23.344;2023-03-12T09:52:27;2.23;;;1.00;;
12218;SDS011;6172;42.646;23.344;2023-03-12T09:55:00;1.27;;;0.90;;
12218;SDS011;6172;42.646;23.344;2023-03-12T09:57:33;0.80;;;0.70;;
12218;SDS011;6172;42.646;23.344;2023-03-12T10:00:00;0.77;;;0.70;;
12218;SDS011;6172;42.646;23.344;2023-03-12T10:05:30;2.10;;;0.80;;
12218;SDS011;6172;42.646;23.344;2023-03-12T10:08:03;1.03;;;0.73;;
12218;SDS011;6172;42.646;23.344;2023-03-12T10:10:39;0.83;;;0.83;;
12218;SDS011;6172;42.646;23.344;2023-03-12T10:13:17;0.93;;;0.60;;
12218;SDS011;6172;42.646;23.344;2023-03-12T10:16:09;0.80;;;0.43;;
12218;SDS011;6172;42.646;23.344;2023-03-12T10:18:54;0.90;;;0.83;;
12218;SDS011;6172;42.646;23.344;2023-03-12T10:21:34;1.53;;;0.77;;
12218;SDS011;6172;42.646;23.344;2023-03-12T10:24:15;1.13;;;0.57;;
12218;SDS011;6172;42.646;23.344;2023-03-12T10:26:53;0.90;;;0.80;;
12218;SDS011;6172;42.646;23.344;2023-03-12T10:29:23;0.93;;;0.87;;
12218;SDS011;6172;42.646;23.344;2023-03-12T10:32:11;1.17;;;0.60;;
12218;SDS011;6172;42.646;23.344;2023-03-12T10:34:43;2.70;;;0.80;;
12218;SDS011;6172;42.646;23.344;2023-03-12T10:37:16;0.97;;;0.60;;
12218;SDS011;6172;42.646;23.344;2023-03-12T10:39:47;1.23;;;0.70;;
12218;SDS011;6172;42.646;23.344;2023-03-12T10:42:15;0.60;;;0.50;;
12218;SDS011;6172;42.646;23.344;2023-03-12T10:44:45;1.80;;;0.70;;
12218;SDS011;6172;42.646;23.344;2023-03-12T10:47:24;1.90;;;0.80;;
12218;SDS011;6172;42.646;23.344;2023-03-12T10:49:59;0.60;;;0.60;;
12218;SDS011;6172;42.646;23.344;2023-03-12T10:52:40;0.63;;;0.60;;
12218;SDS011;6172;42.646;23.344;2023-03-12T10:55:12;2.27;;;0.60;;
12218;SDS011;6172;42.646;23.344;2023-03-12T10:57:46;0.60;;;0.60;;
12218;SDS011;6172;42.646;23.344;2023-03-12T11:00:17;0.83;;;0.60;;
12218;SDS011;6172;42.646;23.344;2023-03-12T11:02:45;2.40;;;0.77;;
12218;SDS011;6172;42.646;23.344;2023-03-12T11:05:20;1.80;;;0.63;;
12218;SDS011;6172;42.646;23.344;2023-03-12T11:07:50;1.40;;;0.50;;
12218;SDS011;6172;42.646;23.344;2023-03-12T11:10:19;0.73;;;0.60;;
12218;SDS011;6172;42.646;23.344;2023-03-12T11:15:48;0.80;;;0.60;;
12218;SDS011;6172;42.646;23.344;2023-03-12T11:18:24;0.63;;;0.43;;
12218;SDS011;6172;42.646;23.344;2023-03-12T11:20:57;1.73;;;0.50;;
12218;SDS011;6172;42.646;23.344;2023-03-12T11:23:42;0.90;;;0.80;;
12218;SDS011;6172;42.646;23.344;2023-03-12T11:26:13;0.73;;;0.53;;
12218;SDS011;6172;42.646;23.344;2023-03-12T11:28:45;2.10;;;0.60;;
12218;SDS011;6172;42.646;23.344;2023-03-12T11:31:15;1.73;;;0.50;;
12218;SDS011;6172;42.646;23.344;2023-03-12T11:33:47;0.97;;;0.50;;
12218;SDS011;6172;42.646;23.344;2023-03-12T11:36:20;0.57;;;0.57;;
12218;SDS011;6172;42.646;23.344;2023-03-12T11:38:59;0.90;;;0.50;;
12218;SDS011;6172;42.646;23.344;2023-03-12T11:41:37;1.33;;;0.50;;
12218;SDS011;6172;42.646;23.344;2023-03-12T11:44:25;0.60;;;0.60;;
12218;SDS011;6172;42.646;23.344;2023-03-12T11:47:05;0.73;;;0.40;;
12218;SDS011;6172;42.646;23.344;2023-03-12T11:49:54;1.20;;;0.60;;
12218;SDS011;6172;42.646;23.344;2023-03-12T11:52:35;1.50;;;0.50;;
12218;SDS011;6172;42.646;23.344;2023-03-12T11:55:16;0.60;;;0.50;;
12218;SDS011;6172;42.646;23.344;2023-03-12T11:57:51;0.40;;;0.40;;
12218;SDS011;6172;42.646;23.344;2023-03-12T12:00:26;1.43;;;0.63;;
12218;SDS011;6172;42.646;23.344;2023-03-12T12:03:18;0.90;;;0.60;;
12218;SDS011;6172;42.646;23.344;2023-03-12T12:06:09;1.37;;;0.73;;
12218;SDS011;6172;42.646;23.344;2023-03-12T12:08:46;0.70;;;0.70;;
12218;SDS011;6172;42.646;23.344;2023-03-12T12:11:27;0.70;;;0.60;;
12218;SDS011;6172;42.646;23.344;2023-03-12T12:14:02;1.40;;;0.70;;
12218;SDS011;6172;42.646;23.344;2023-03-12T12:16:50;0.73;;;0.73;;
12218;SDS011;6172;42.646;23.344;2023-03-12T12:19:30;1.03;;;0.63;;
12218;SDS011;6172;42.646;23.344;2023-03-12T12:22:10;0.80;;;0.80;;
12218;SDS011;6172;42.646;23.344;2023-03-12T12:24:53;1.07;;;0.70;;
12218;SDS011;6172;42.646;23.344;2023-03-12T12:27:39;0.73;;;0.73;;
12218;SDS011;6172;42.646;23.344;2023-03-12T12:30:16;0.50;;;0.50;;
12218;SDS011;6172;42.646;23.344;2023-03-12T12:32:59;1.27;;;0.80;;
12218;SDS011;6172;42.646;23.344;2023-03-12T12:35:35;0.83;;;0.70;;
12218;SDS011;6172;42.646;23.344;2023-03-12T12:38:04;1.83;;;0.80;;
12218;SDS011;6172;42.646;23.344;2023-03-12T12:40:39;0.70;;;0.70;;
12218;SDS011;6172;42.646;23.344;2023-03-12T12:43:14;3.03;;;1.10;;
12218;SDS011;6172;42.646;23.344;2023-03-12T12:45:52;1.67;;;0.70;;
12218;SDS011;6172;42.646;23.344;2023-03-12T12:48:23;0.93;;;0.60;;
12218;SDS011;6172;42.646;23.344;2023-03-12T12:50:53;0.73;;;0.53;;
12218;SDS011;6172;42.646;23.344;2023-03-12T12:53:24;1.07;;;0.63;;
12218;SDS011;6172;42.646;23.344;2023-03-12T12:55:59;1.00;;;0.67;;
12218;SDS011;6172;42.646;23.344;2023-03-12T13:01:50;1.17;;;0.60;;
12218;SDS011;6172;42.646;23.344;2023-03-12T13:04:22;1.43;;;1.03;;
12218;SDS011;6172;42.646;23.344;2023-03-12T13:06:59;1.57;;;0.90;;
12218;SDS011;6172;42.646;23.344;2023-03-12T13:09:35;1.30;;;0.87;;
12218;SDS011;6172;42.646;23.344;2023-03-12T13:12:10;3.10;;;0.80;;
12218;SDS011;6172;42.646;23.344;2023-03-12T13:14:43;1.23;;;0.90;;
12218;SDS011;6172;42.646;23.344;2023-03-12T13:17:23;0.57;;;0.57;;
12218;SDS011;6172;42.646;23.344;2023-03-12T13:19:58;1.87;;;0.67;;
12218;SDS011;6172;42.646;23.344;2023-03-12T13:22:40;0.80;;;0.63;;
12218;SDS011;6172;42.646;23.344;2023-03-12T13:25:23;0.90;;;0.90;;
12218;SDS011;6172;42.646;23.344;2023-03-12T13:28:25;1.33;;;0.83;;
12218;SDS011;6172;42.646;23.344;2023-03-12T13:31:00;0.97;;;0.70;;
12218;SDS011;6172;42.646;23.344;2023-03-12T13:33:51;2.27;;;0.83;;
12218;SDS011;6172;42.646;23.344;2023-03-12T13:36:21;0.93;;;0.80;;
12218;SDS011;6172;42.646;23.344;2023-03-12T13:38:54;1.07;;;0.50;;
12218;SDS011;6172;42.646;23.344;2023-03-12T13:41:29;0.90;;;0.60;;
12218;SDS011;6172;42.646;23.344;2023-03-12T13:43:59;1.30;;;0.60;;
12218;SDS011;6172;42.646;23.344;2023-03-12T13:46:46;1.07;;;0.80;;
12218;SDS011;6172;42.646;23.344;2023-03-12T13:49:18;0.93;;;0.90;;
12218;SDS011;6172;42.646;23.344;2023-03-12T13:51:54;0.80;;;0.80;;
12218;SDS011;6172;42.646;23.344;2023-03-12T13:54:25;1.33;;;0.83;;
12218;SDS011;6172;42.646;23.344;2023-03-12T13:56:56;2.07;;;0.90;;
12218;SDS011;6172;42.646;23.344;2023-03-12T13:59:25;1.47;;;0.90;;
12218;SDS011;6172;42.646;23.344;2023-03-12T14:01:55;0.70;;;0.70;;
12218;SDS011;6172;42.646;23.344;2023-03-12T14:04:29;0.60;;;0.60;;
12218;SDS011;6172;42.646;23.344;2023-03-12T14:07:14;1.53;;;0.80;;
12218;SDS011;6172;42.646;23.344;2023-03-12T14:10:06;1.43;;;0.97;;
12218;SDS011;6172;42.646;23.344;2023-03-12T14:12:47;0.60;;;0.60;;
12218;SDS011;6172;42.646;23.344;2023-03-12T14:15:23;1.50;;;0.70;;
12218;SDS011;6172;42.646;23.344;2023-03-12T14:17:55;0.73;;;0.60;;
12218;SDS011;6172;42.646;23.344;2023-03-12T14:20:26;1.03;;;0.73;;
12218;SDS011;6172;42.646;23.344;2023-03-12T14:22:56;2.23;;;0.80;;
12218;SDS011;6172;42.646;23.344;2023-03-12T14:25:30;1.10;;;0.70;;
12218;SDS011;6172;42.646;23.344;2023-03-12T14:28:00;1.07;;;0.90;;
12218;SDS011;6172;42.646;23.344;2023-03-12T14:30:33;0.70;;;0.70;;
12218;SDS011;6172;42.646;23.344;2023-03-12T14:33:08;1.13;;;0.90;;
12218;SDS011;6172;42.646;23.344;2023-03-12T14:35:39;1.60;;;1.00;;
12218;SDS011;6172;42.646;23.344;2023-03-12T14:38:11;1.43;;;1.10;;
12218;SDS011;6172;42.646;23.344;2023-03-12T14:40:42;1.20;;;0.90;;
12218;SDS011;6172;42.646;23.344;2023-03-12T14:43:21;1.70;;;1.07;;
12218;SDS011;6172;42.646;23.344;2023-03-12T14:45:53;4.87;;;0.97;;
12218;SDS011;6172;42.646;23.344;2023-03-12T14:48:22;2.57;;;1.10;;
12218;SDS011;6172;42.646;23.344;2023-03-12T14:50:53;1.10;;;0.70;;
12218;SDS011;6172;42.646;23.344;2023-03-12T14:53:23;1.87;;;1.00;;
12218;SDS011;6172;42.646;23.344;2023-03-12T14:56:01;0.80;;;0.70;;
12218;SDS011;6172;42.646;23.344;2023-03-12T14:58:30;1.73;;;0.83;;
12218;SDS011;6172;42.646;23.344;2023-03-12T15:00:59;1.73;;;0.90;;
12218;SDS011;6172;42.646;23.344;2023-03-12T15:03:29;1.87;;;0.80;;
12218;SDS011;6172;42.646;23.344;2023-03-12T15:06:12;2.33;;;1.10;;
12218;SDS011;6172;42.646;23.344;2023-03-12T15:08:43;3.33;;;1.00;;
12218;SDS011;6172;42.646;23.344;2023-03-12T15:11:11;3.40;;;0.90;;
12218;SDS011;6172;42.646;23.344;2023-03-12T15:13:38;0.77;;;0.70;;
12218;SDS011;6172;42.646;23.344;2023-03-12T15:16:05;0.77;;;0.70;;
12218;SDS011;6172;42.646;23.344;2023-03-12T15:18:35;1.43;;;0.90;;
12218;SDS011;6172;42.646;23.344;2023-03-12T15:21:02;0.83;;;0.80;;